createdAt,value
2019-05-10T16:27:41.725Z,53.12
2019-05-10T16:30:12.029Z,53.69
2019-05-10T16:32:39.286Z,53.89
2019-05-10T16:35:12.799Z,53.56
2019-05-10T16:37:39.053Z,53.71
2019-05-10T16:40:08.937Z,53.86
2019-05-10T16:42:37.378Z,53.52
2019-05-10T16:45:06.417Z,52.98
2019-05-10T16:47:38.125Z,52.82
2019-05-10T16:50:08.021Z,52.49
2019-05-10T16:52:36.773Z,52.14
2019-05-10T16:55:09.990Z,52.11
2019-05-10T16:57:39.517Z,52.19
2019-05-10T17:00:10.740Z,51.83
2019-05-10T17:02:42.070Z,51.65
2019-05-10T17:05:15.353Z,51.67
2019-05-10T17:07:46.560Z,51.36
2019-05-10T17:10:16.679Z,51.11
2019-05-10T17:12:45.467Z,51.43
2019-05-10T17:15:14.199Z,50.89
2019-05-10T17:17:44.976Z,50.77
2019-05-10T17:20:15.675Z,50.41
2019-05-10T17:22:44.022Z,50.58
2019-05-10T17:25:12.745Z,50.51
2019-05-10T17:27:41.352Z,50.69
2019-05-10T17:30:09.851Z,50.81
2019-05-10T17:32:40.136Z,50.91
2019-05-10T17:35:12.357Z,50.81
2019-05-10T17:37:40.724Z,50.71
2019-05-10T17:40:12.430Z,50.63
2019-05-10T17:42:41.762Z,51.04
2019-05-10T17:45:11.945Z,51.54
2019-05-10T17:47:40.898Z,51.73
2019-05-10T17:50:09.924Z,51.86
2019-05-10T17:52:38.437Z,52.05
2019-05-10T17:55:10.912Z,52.19
2019-05-10T17:57:39.232Z,52.99
2019-05-10T18:00:09.978Z,53.49
2019-05-10T18:02:41.339Z,53.68
2019-05-10T18:05:10.377Z,53.87
2019-05-10T18:07:40.232Z,54.12
2019-05-10T18:10:10.116Z,54.26
2019-05-10T18:12:39.365Z,54.19
2019-05-10T18:15:09.546Z,54.04
2019-05-10T18:17:38.192Z,54.14
2019-05-10T18:20:06.926Z,54.21
2019-05-10T18:22:43.692Z,54.21
2019-05-10T18:25:06.468Z,54.20
2019-05-10T18:27:34.960Z,54.32
2019-05-10T18:30:03.469Z,54.31
2019-05-10T18:32:35.377Z,54.61
2019-05-10T18:35:13.776Z,54.86
2019-05-10T18:37:36.709Z,54.85
2019-05-10T18:40:08.680Z,55.02
2019-05-10T18:42:37.525Z,55.12
2019-05-10T18:45:07.269Z,55.17
2019-05-10T18:47:37.687Z,55.29
2019-05-10T18:50:07.839Z,55.40
2019-05-10T18:52:36.632Z,55.55
2019-05-10T18:55:07.510Z,55.68
2019-05-10T18:57:37.409Z,55.58
2019-05-10T19:00:07.699Z,55.65
2019-05-10T19:02:36.956Z,55.34
2019-05-10T19:05:07.839Z,55.11
2019-05-10T19:07:36.284Z,54.97
2019-05-10T19:10:08.605Z,54.95
2019-05-10T19:12:38.640Z,55.07
2019-05-10T19:15:15.425Z,54.95
2019-05-10T19:18:04.066Z,54.94
2019-05-10T19:20:35.797Z,54.77
2019-05-10T19:23:05.655Z,54.86
2019-05-10T19:25:37.834Z,54.83
2019-05-10T19:28:08.387Z,55.16
2019-05-10T19:30:39.409Z,55.23
2019-05-10T19:33:09.360Z,55.28
2019-05-10T19:35:39.746Z,55.21
2019-05-10T19:38:10.078Z,55.04
2019-05-10T19:40:39.287Z,54.96
2019-05-10T19:43:09.475Z,55.06
2019-05-10T19:45:40.251Z,54.73
2019-05-10T19:48:10.351Z,55.32
2019-05-10T19:50:39.515Z,55.95
2019-05-10T19:53:09.781Z,56.52
2019-05-10T19:55:38.649Z,56.83
2019-05-10T19:58:08.285Z,57.27
2019-05-10T20:00:41.181Z,57.44
2019-05-10T20:03:11.057Z,57.59
2019-05-10T20:05:41.461Z,57.80
2019-05-10T20:08:09.945Z,58.31
2019-05-10T20:10:39.926Z,58.32
2019-05-10T20:13:09.731Z,58.37
2019-05-10T20:15:40.214Z,58.62
2019-05-10T20:18:10.016Z,59.15
2019-05-10T20:20:40.864Z,59.39
2019-05-10T20:23:13.477Z,59.47
2019-05-10T20:25:43.906Z,59.89
2019-05-10T20:28:13.440Z,60.00
2019-05-10T20:30:43.569Z,60.08
2019-05-10T20:33:13.825Z,60.10
2019-05-10T20:35:44.177Z,60.19
2019-05-10T20:38:12.770Z,60.18
2019-05-10T20:40:43.255Z,60.75
2019-05-10T20:43:13.271Z,60.79
2019-05-10T20:45:43.744Z,60.78
2019-05-10T20:48:12.922Z,60.91
2019-05-10T20:50:41.340Z,60.98
2019-05-10T20:53:10.614Z,61.28
2019-05-10T20:55:39.867Z,61.37
2019-05-10T20:58:10.106Z,61.68
2019-05-10T21:00:39.872Z,61.17
2019-05-10T21:03:10.249Z,61.25
2019-05-10T21:05:40.225Z,61.33
2019-05-10T21:08:17.091Z,61.53
2019-05-10T21:10:43.937Z,61.79
2019-05-10T21:13:14.055Z,61.74
2019-05-10T21:15:44.201Z,62.06
2019-05-10T21:18:13.787Z,62.42
2019-05-10T21:20:44.587Z,63.06
2019-05-10T21:23:15.107Z,62.78
2019-05-10T21:25:45.129Z,62.77
2019-05-10T21:28:15.598Z,62.79
2019-05-10T21:30:43.915Z,62.88
2019-05-10T21:33:13.196Z,63.23
2019-05-10T21:35:43.355Z,63.48
2019-05-10T21:38:13.427Z,63.93
2019-05-10T21:40:43.545Z,64.05
2019-05-10T21:43:13.756Z,63.69
2019-05-10T21:45:43.160Z,63.61
2019-05-10T21:48:13.638Z,63.49
2019-05-10T21:50:43.815Z,63.50
2019-05-10T21:53:14.329Z,63.67
2019-05-10T21:55:44.537Z,64.15
2019-05-10T21:58:14.659Z,64.68
2019-05-10T22:00:46.588Z,65.08
2019-05-10T22:03:16.673Z,65.20
2019-05-10T22:05:46.814Z,65.25
2019-05-10T22:08:16.908Z,65.21
2019-05-10T22:10:45.699Z,65.32
2019-05-10T22:13:15.801Z,65.46
2019-05-10T22:15:47.303Z,65.61
2019-05-10T22:18:17.375Z,65.42
2019-05-10T22:20:48.936Z,65.31
2019-05-10T22:23:18.772Z,65.07
2019-05-10T22:25:47.422Z,65.84
2019-05-10T22:28:17.468Z,65.50
2019-05-10T22:30:47.882Z,65.56
2019-05-10T22:33:17.991Z,66.26
2019-05-10T22:35:48.325Z,66.81
2019-05-10T22:38:18.764Z,67.00
2019-05-10T22:40:49.137Z,67.16
2019-05-10T22:43:19.110Z,67.70
2019-05-10T22:45:49.195Z,67.69
2019-05-10T22:48:19.320Z,67.93
2019-05-10T22:50:49.463Z,68.19
2019-05-10T22:53:19.472Z,67.80
2019-05-10T22:55:49.498Z,68.03
2019-05-10T22:58:19.790Z,68.95
2019-05-10T23:00:49.965Z,69.28
2019-05-10T23:03:24.109Z,69.12
2019-05-10T23:05:52.546Z,68.69
2019-05-10T23:08:22.561Z,68.35
2019-05-10T23:10:52.426Z,68.26
2019-05-10T23:13:24.782Z,69.01
2019-05-10T23:15:53.140Z,69.38
2019-05-10T23:18:21.776Z,70.21
2019-05-10T23:20:51.832Z,70.48
2019-05-10T23:23:22.197Z,71.29
2019-05-10T23:25:52.232Z,71.18
2019-05-10T23:28:22.972Z,70.83
2019-05-10T23:30:52.527Z,70.27
2019-05-10T23:33:22.851Z,70.37
2019-05-10T23:35:52.600Z,70.53
2019-05-10T23:38:22.627Z,70.85
2019-05-10T23:40:53.628Z,71.28
2019-05-10T23:43:24.062Z,71.77
2019-05-10T23:45:54.097Z,72.06
2019-05-10T23:48:24.211Z,71.94
2019-05-10T23:50:53.864Z,72.18
2019-05-10T23:53:24.305Z,71.98
2019-05-10T23:55:54.094Z,71.91
2019-05-10T23:58:24.675Z,71.94
